Time;durP1;ratioP1;P1;durP2;ratioP2;P2;SDS_P1;SDS_P2;PMS_P1;PMS_P2;Temp;Humidity;BMP_temperature;BMP_pressure;BME280_temperature;BME280_humidity;BME280_pressure;Samples;Min_cycle;Max_cycle;Signal;HPM_P1;HPM_P2
2022/09/10 00:01:27;;;;;;;12.27;8.95;;;14.80;99.90;;;;;;4811471;29;20506;-76
2022/09/10 00:03:53;;;;;;;11.70;8.80;;;14.80;99.90;;;;;;4811118;29;20479;-76
2022/09/10 00:06:20;;;;;;;11.88;9.02;;;14.80;99.90;;;;;;4827399;29;20054;-76
2022/09/10 00:08:48;;;;;;;14.27;9.10;;;14.80;99.90;;;;;;4811111;29;20050;-76
2022/09/10 00:11:14;;;;;;;14.80;9.57;;;14.90;99.90;;;;;;4811214;29;20050;-76
2022/09/10 00:13:40;;;;;;;14.20;10.18;;;14.90;99.90;;;;;;4811272;29;20380;-76
2022/09/10 00:16:09;;;;;;;14.63;9.95;;;14.90;99.90;;;;;;4811135;29;20049;-76
2022/09/10 00:18:36;;;;;;;15.27;10.68;;;14.80;99.90;;;;;;4810964;29;20054;-77
2022/09/10 00:21:05;;;;;;;18.08;11.65;;;14.90;99.90;;;;;;4810507;29;20526;-76
2022/09/10 00:23:31;;;;;;;19.73;11.68;;;15.00;99.90;;;;;;4810661;29;20442;-76
2022/09/10 00:25:57;;;;;;;15.20;11.90;;;14.90;99.90;;;;;;4810635;29;20479;-76
2022/09/10 00:28:25;;;;;;;17.77;12.68;;;15.00;99.90;;;;;;4811214;29;20046;-75
2022/09/10 00:30:53;;;;;;;16.20;12.25;;;15.00;99.90;;;;;;4826760;29;20499;-75
2022/09/10 00:33:20;;;;;;;17.45;12.60;;;15.00;99.90;;;;;;4810706;29;20054;-75
2022/09/10 00:35:46;;;;;;;19.35;12.73;;;15.00;99.90;;;;;;4810729;29;20062;-76
2022/09/10 00:38:13;;;;;;;19.92;13.30;;;15.00;99.90;;;;;;4810755;29;20111;-76
2022/09/10 00:40:40;;;;;;;19.17;12.90;;;15.00;99.90;;;;;;4810510;29;20469;-76
2022/09/10 00:43:19;;;;;;;20.02;12.98;;;15.00;99.90;;;;;;4810681;29;20058;-76
2022/09/10 00:45:49;;;;;;;19.27;14.02;;;15.10;99.90;;;;;;4826475;29;20403;-76
2022/09/10 00:48:27;;;;;;;18.83;13.75;;;15.10;99.90;;;;;;4810508;29;20046;-76
2022/09/10 00:50:54;;;;;;;20.70;14.02;;;15.00;99.90;;;;;;4826648;29;20487;-76
2022/09/10 00:53:27;;;;;;;24.13;14.50;;;15.10;99.90;;;;;;4810610;29;20065;-76
2022/09/10 00:55:58;;;;;;;21.45;14.05;;;15.10;99.90;;;;;;4810165;29;20046;-76
2022/09/10 00:58:26;;;;;;;20.83;14.95;;;15.10;99.90;;;;;;4810347;29;20054;-75
2022/09/10 01:00:59;;;;;;;23.67;14.73;;;15.10;99.90;;;;;;4810088;29;20066;-76
2022/09/10 01:03:31;;;;;;;22.90;16.20;;;15.10;99.90;;;;;;4826490;29;20082;-76
2022/09/10 01:05:57;;;;;;;28.60;16.23;;;15.10;99.90;;;;;;4810005;29;20497;-76
2022/09/10 01:08:23;;;;;;;22.38;15.90;;;15.10;99.90;;;;;;4810092;29;20054;-76
2022/09/10 01:11:16;;;;;;;23.73;16.27;;;15.10;99.90;;;;;;4810189;29;20499;-76
2022/09/10 01:14:00;;;;;;;26.65;18.00;;;15.20;99.90;;;;;;4810270;29;20073;-76
2022/09/10 01:16:43;;;;;;;25.00;16.45;;;15.10;99.90;;;;;;4810215;29;20085;-77
2022/09/10 01:19:27;;;;;;;30.85;18.27;;;15.20;99.90;;;;;;4810047;29;20121;-76
2022/09/10 01:22:24;;;;;;;29.80;18.38;;;15.20;99.90;;;;;;4809856;29;20063;-76
2022/09/10 01:24:55;;;;;;;26.48;18.23;;;15.10;99.90;;;;;;4809743;29;20058;-76
2022/09/10 01:27:32;;;;;;;30.60;18.52;;;15.10;99.90;;;;;;4809852;29;20484;-76
2022/09/10 01:30:04;;;;;;;27.67;18.17;;;15.10;99.90;;;;;;4809920;29;20133;-76
2022/09/10 01:32:42;;;;;;;30.63;18.33;;;15.20;99.90;;;;;;4809036;29;20130;-76
2022/09/10 01:35:15;;;;;;;32.65;19.55;;;15.10;99.90;;;;;;4809692;29;20055;-76
2022/09/10 01:37:50;;;;;;;29.08;19.08;;;15.10;99.90;;;;;;4809657;29;20046;-76
2022/09/10 01:40:16;;;;;;;29.40;18.95;;;15.20;99.90;;;;;;4809738;29;20046;-76
2022/09/10 01:42:42;;;;;;;29.85;19.27;;;15.10;99.90;;;;;;4809725;29;20570;-76
2022/09/10 01:45:14;;;;;;;30.85;17.88;;;15.20;99.90;;;;;;4809383;29;20202;-76
2022/09/10 01:48:12;;;;;;;28.83;18.42;;;15.20;99.90;;;;;;4809528;29;20062;-76
2022/09/10 01:51:04;;;;;;;29.50;19.05;;;15.20;99.90;;;;;;4809320;29;20065;-76
2022/09/10 01:54:10;;;;;;;31.60;19.65;;;15.20;99.90;;;;;;4825863;29;20061;-76
2022/09/10 01:57:00;;;;;;;28.38;18.20;;;15.20;99.90;;;;;;4825742;29;20050;-76
2022/09/10 01:59:45;;;;;;;28.75;17.85;;;15.20;99.90;;;;;;4809230;29;20172;-76
2022/09/10 02:02:20;;;;;;;29.23;18.30;;;15.20;99.90;;;;;;4825617;29;20196;-76
2022/09/10 02:04:49;;;;;;;36.17;19.73;;;15.20;99.90;;;;;;4825346;29;20050;-76
2022/09/10 02:07:17;;;;;;;31.33;19.23;;;15.20;99.90;;;;;;4808982;29;20440;-76
2022/09/10 02:09:43;;;;;;;31.15;18.75;;;15.20;99.90;;;;;;4808881;29;20107;-76
2022/09/10 02:12:20;;;;;;;32.97;20.13;;;15.20;99.90;;;;;;4809102;29;20050;-77
2022/09/10 02:14:52;;;;;;;29.23;18.02;;;15.20;99.90;;;;;;4808733;29;20054;-77
2022/09/10 02:17:19;;;;;;;29.30;19.45;;;15.20;99.90;;;;;;4808845;29;20086;-77
2022/09/10 02:19:46;;;;;;;32.33;19.50;;;15.20;99.90;;;;;;4825394;29;20099;-76
2022/09/10 02:22:15;;;;;;;29.35;18.77;;;15.20;99.90;;;;;;4808573;29;20142;-77
2022/09/10 02:24:43;;;;;;;31.33;19.30;;;15.20;99.90;;;;;;4825227;29;20095;-77
2022/09/10 02:27:10;;;;;;;33.50;19.42;;;15.30;99.90;;;;;;4809011;29;20091;-76
2022/09/10 02:29:37;;;;;;;32.47;20.15;;;15.30;99.90;;;;;;4808875;29;20542;-76
2022/09/10 02:32:05;;;;;;;32.03;19.65;;;15.30;99.90;;;;;;4825221;29;20046;-76
2022/09/10 02:34:31;;;;;;;30.35;19.02;;;15.20;99.90;;;;;;4808650;29;20057;-76
2022/09/10 02:36:57;;;;;;;31.17;19.27;;;15.30;99.90;;;;;;4825146;29;20050;-77
2022/09/10 02:39:23;;;;;;;34.47;20.75;;;15.30;99.90;;;;;;4808691;29;20050;-76
2022/09/10 02:41:49;;;;;;;32.42;19.63;;;15.30;99.90;;;;;;4808808;29;20133;-76
2022/09/10 02:44:15;;;;;;;34.42;20.33;;;15.20;99.90;;;;;;4808253;29;20543;-76
2022/09/10 02:46:40;;;;;;;35.80;20.05;;;15.30;99.90;;;;;;4808672;29;20057;-76
2022/09/10 02:49:06;;;;;;;33.25;20.67;;;15.20;99.90;;;;;;4808763;29;20046;-76
2022/09/10 02:51:32;;;;;;;39.65;21.42;;;15.20;99.90;;;;;;4808454;29;20081;-76
2022/09/10 02:53:57;;;;;;;35.60;21.75;;;15.20;99.90;;;;;;4808690;29;20054;-76
2022/09/10 02:56:23;;;;;;;34.95;20.80;;;15.20;99.90;;;;;;4824906;29;20050;-76
2022/09/10 02:58:50;;;;;;;37.63;21.17;;;15.30;99.90;;;;;;4808420;29;20510;-76
2022/09/10 03:01:18;;;;;;;38.60;21.35;;;15.30;99.90;;;;;;4808223;29;20042;-76
2022/09/10 03:03:49;;;;;;;38.67;22.55;;;15.30;99.90;;;;;;4824901;29;20042;-77
2022/09/10 03:06:15;;;;;;;33.80;21.25;;;15.20;99.90;;;;;;4808228;29;20054;-77
2022/09/10 03:08:40;;;;;;;38.60;21.92;;;15.30;99.90;;;;;;4808290;29;20066;-77
2022/09/10 03:11:06;;;;;;;38.40;21.90;;;15.20;99.90;;;;;;4824736;29;20081;-76
2022/09/10 03:13:33;;;;;;;38.72;21.30;;;15.20;99.90;;;;;;4808056;29;20402;-76
2022/09/10 03:16:02;;;;;;;34.17;20.70;;;15.30;99.90;;;;;;4808098;29;20406;-76
2022/09/10 03:18:28;;;;;;;34.17;21.13;;;15.30;99.90;;;;;;4808147;29;20051;-76
2022/09/10 03:20:54;;;;;;;37.85;22.48;;;15.30;99.90;;;;;;4808164;29;20066;-76
2022/09/10 03:23:19;;;;;;;38.58;24.05;;;15.30;99.90;;;;;;4808512;29;20089;-75
2022/09/10 03:25:45;;;;;;;36.83;23.67;;;15.30;99.90;;;;;;4808165;29;20054;-76
2022/09/10 03:28:12;;;;;;;38.67;23.58;;;15.20;99.90;;;;;;4808269;29;20046;-76
2022/09/10 03:30:39;;;;;;;35.67;23.02;;;15.30;99.90;;;;;;4808307;29;20086;-76
2022/09/10 03:33:06;;;;;;;34.83;23.20;;;15.20;99.90;;;;;;4808271;29;20410;-76
2022/09/10 03:35:32;;;;;;;35.17;22.67;;;15.30;99.90;;;;;;4824385;29;20500;-76
2022/09/10 03:37:57;;;;;;;35.60;23.58;;;15.20;99.90;;;;;;4808109;29;20084;-76
2022/09/10 03:40:23;;;;;;;34.65;22.98;;;15.20;99.90;;;;;;4808320;29;20103;-76
2022/09/10 03:42:49;;;;;;;36.38;23.95;;;15.30;99.90;;;;;;4808182;29;20483;-76
2022/09/10 03:45:14;;;;;;;38.60;22.58;;;15.20;99.90;;;;;;4807876;29;20517;-76
2022/09/10 03:47:40;;;;;;;37.83;24.05;;;15.20;99.90;;;;;;4807607;29;20117;-76
2022/09/10 03:50:06;;;;;;;34.17;22.17;;;15.20;99.90;;;;;;4824173;29;20055;-76
2022/09/10 03:52:32;;;;;;;34.30;22.15;;;15.20;99.90;;;;;;4808134;29;20093;-77
2022/09/10 03:54:57;;;;;;;37.60;22.25;;;15.20;99.90;;;;;;4808064;29;20093;-76
2022/09/10 03:57:24;;;;;;;36.30;21.77;;;15.10;99.90;;;;;;4810439;29;20395;-76
2022/09/10 03:59:50;;;;;;;35.42;21.02;;;15.10;99.90;;;;;;4811119;29;20404;-76
2022/09/10 04:02:16;;;;;;;37.60;22.40;;;15.10;99.90;;;;;;4827407;29;20050;-76
2022/09/10 04:04:41;;;;;;;35.83;22.40;;;15.10;99.90;;;;;;4811312;29;20050;-76
2022/09/10 04:07:09;;;;;;;39.42;22.58;;;15.00;99.90;;;;;;4811190;29;20051;-76
2022/09/10 04:09:35;;;;;;;35.78;23.02;;;15.00;99.90;;;;;;4811136;29;20057;-76
2022/09/10 04:12:02;;;;;;;38.25;23.30;;;15.00;99.90;;;;;;4810979;29;20050;-76
2022/09/10 04:14:28;;;;;;;38.38;24.13;;;15.00;99.90;;;;;;4827192;29;20503;-76
2022/09/10 04:16:56;;;;;;;38.25;23.75;;;15.00;99.90;;;;;;4811303;29;20062;-77
2022/09/10 04:19:22;;;;;;;35.22;22.83;;;15.00;99.90;;;;;;4810956;29;20062;-76
2022/09/10 04:21:47;;;;;;;34.72;22.20;;;15.00;99.90;;;;;;4826948;29;20069;-76
2022/09/10 04:24:13;;;;;;;36.75;23.25;;;15.00;99.90;;;;;;4826815;29;20054;-77
2022/09/10 04:26:39;;;;;;;32.25;20.00;;;15.00;99.90;;;;;;4810784;29;20082;-76
2022/09/10 04:29:04;;;;;;;35.65;21.77;;;15.00;99.90;;;;;;4810777;29;20050;-76
2022/09/10 04:31:30;;;;;;;33.70;21.48;;;14.90;99.90;;;;;;4810809;29;20137;-76
2022/09/10 04:34:00;;;;;;;35.35;22.50;;;15.00;99.90;;;;;;4810796;29;20061;-76
2022/09/10 04:36:25;;;;;;;35.35;22.50;;;15.00;99.90;;;;;;4826542;29;20050;-76
2022/09/10 04:38:51;;;;;;;37.60;23.02;;;14.90;99.90;;;;;;4826832;29;20381;-77
2022/09/10 04:41:18;;;;;;;33.03;21.15;;;14.90;99.90;;;;;;4810512;29;20057;-76
2022/09/10 04:43:44;;;;;;;37.15;22.75;;;14.90;99.90;;;;;;4810433;29;20061;-76
2022/09/10 04:46:10;;;;;;;35.05;21.77;;;15.00;99.90;;;;;;4810270;29;20062;-76
2022/09/10 04:48:36;;;;;;;37.08;21.58;;;14.90;99.90;;;;;;4810468;29;20380;-76
2022/09/10 04:51:03;;;;;;;35.25;22.38;;;14.90;99.90;;;;;;4810671;29;20517;-77
2022/09/10 04:53:30;;;;;;;33.53;22.58;;;15.00;99.90;;;;;;4810117;29;20057;-76
2022/09/10 04:55:56;;;;;;;33.53;20.40;;;14.90;99.90;;;;;;4810452;29;20069;-76
2022/09/10 04:58:22;;;;;;;33.30;22.60;;;14.90;99.90;;;;;;4810078;29;20048;-76
2022/09/10 05:00:48;;;;;;;38.80;22.45;;;15.00;99.90;;;;;;4810024;29;20076;-77
2022/09/10 05:03:13;;;;;;;34.33;22.40;;;15.00;99.90;;;;;;4810313;29;20050;-77
2022/09/10 05:05:41;;;;;;;34.55;22.00;;;15.00;99.90;;;;;;4809987;29;20047;-77
2022/09/10 05:08:07;;;;;;;38.28;23.30;;;15.00;99.90;;;;;;4809313;29;20107;-77
2022/09/10 05:10:35;;;;;;;36.03;22.63;;;15.00;99.90;;;;;;4826178;29;20050;-76
2022/09/10 05:13:01;;;;;;;33.00;20.95;;;15.00;99.90;;;;;;4825016;29;20062;-76
2022/09/10 05:15:27;;;;;;;30.25;20.63;;;15.00;99.90;;;;;;4826050;29;20047;-76
2022/09/10 05:17:53;;;;;;;35.55;22.58;;;15.00;99.90;;;;;;4809986;29;20054;-77
2022/09/10 05:20:22;;;;;;;37.25;22.38;;;15.00;99.90;;;;;;4809699;29;20522;-77
2022/09/10 05:22:47;;;;;;;34.60;21.60;;;15.00;99.90;;;;;;4825786;29;20062;-77
2022/09/10 05:25:14;;;;;;;33.88;21.80;;;15.00;99.90;;;;;;4826193;29;20484;-77
2022/09/10 05:27:40;;;;;;;37.28;21.50;;;15.00;99.90;;;;;;4826002;29;20054;-76
2022/09/10 05:30:07;;;;;;;32.80;21.38;;;15.00;99.90;;;;;;4809865;29;20137;-77
2022/09/10 05:32:33;;;;;;;34.33;22.13;;;15.00;99.90;;;;;;4809680;29;20058;-77
2022/09/10 05:34:59;;;;;;;33.10;21.80;;;15.10;99.90;;;;;;4825899;29;20047;-77
2022/09/10 05:37:25;;;;;;;36.05;22.90;;;15.10;99.90;;;;;;4809722;29;20115;-76
2022/09/10 05:39:50;;;;;;;37.72;22.70;;;15.10;99.90;;;;;;4809468;29;20505;-77
2022/09/10 05:42:17;;;;;;;33.75;20.65;;;15.00;99.90;;;;;;4809456;29;20046;-76
2022/09/10 05:44:43;;;;;;;36.05;22.20;;;15.10;99.90;;;;;;4825629;29;20579;-79
2022/09/10 05:47:08;;;;;;;37.50;22.73;;;15.00;99.90;;;;;;4825996;29;20090;-79
2022/09/10 05:49:35;;;;;;;33.85;21.33;;;15.10;99.90;;;;;;4809375;29;20050;-79
2022/09/10 05:52:01;;;;;;;37.83;24.75;;;15.10;99.90;;;;;;4809525;29;20059;-79
2022/09/10 05:54:26;;;;;;;33.85;21.50;;;15.10;99.90;;;;;;4809623;29;20143;-80
2022/09/10 05:56:52;;;;;;;37.97;23.38;;;15.10;99.90;;;;;;4825683;29;20058;-80
2022/09/10 05:59:19;;;;;;;37.67;23.15;;;15.20;99.90;;;;;;4809627;29;20062;-81
2022/09/10 06:01:45;;;;;;;36.65;23.77;;;15.10;99.90;;;;;;4826120;29;20093;-78
2022/09/10 06:04:10;;;;;;;39.13;23.05;;;15.20;99.90;;;;;;4809652;29;20081;-77
2022/09/10 06:06:36;;;;;;;38.63;23.48;;;15.10;99.90;;;;;;4808940;29;20050;-77
2022/09/10 06:09:02;;;;;;;38.35;23.98;;;15.20;99.90;;;;;;4825368;29;20519;-77
2022/09/10 06:11:28;;;;;;;38.85;23.73;;;15.20;99.90;;;;;;4808877;29;20506;-77
2022/09/10 06:13:53;;;;;;;38.67;24.02;;;15.20;99.90;;;;;;4808918;29;20078;-78
2022/09/10 06:16:19;;;;;;;41.15;24.52;;;15.30;99.90;;;;;;4825697;29;20051;-77
2022/09/10 06:18:45;;;;;;;36.25;23.27;;;15.30;99.90;;;;;;4824819;29;20095;-77
2022/09/10 06:21:16;;;;;;;40.47;24.55;;;15.30;99.90;;;;;;4808692;29;20058;-76
2022/09/10 06:23:43;;;;;;;40.50;25.10;;;15.30;99.90;;;;;;4808804;29;20103;-77
2022/09/10 06:26:11;;;;;;;36.67;23.48;;;15.30;99.90;;;;;;4808660;29;20050;-77
2022/09/10 06:28:37;;;;;;;38.85;24.33;;;15.30;99.90;;;;;;4825809;29;20111;-77
2022/09/10 06:31:04;;;;;;;36.00;23.52;;;15.40;99.90;;;;;;4802154;29;20054;-77
2022/09/10 06:33:31;;;;;;;37.80;24.50;;;15.40;99.90;;;;;;4792000;29;20051;-76
2022/09/10 06:35:59;;;;;;;41.72;24.30;;;15.30;99.90;;;;;;4790516;29;20055;-76
2022/09/10 06:38:28;;;;;;;41.40;24.52;;;15.30;99.90;;;;;;4790192;29;20488;-76
2022/09/10 06:40:55;;;;;;;39.53;24.73;;;15.40;99.90;;;;;;4790470;29;20055;-76
2022/09/10 06:43:22;;;;;;;38.40;23.88;;;15.30;99.90;;;;;;4790537;29;20047;-76
2022/09/10 06:45:52;;;;;;;39.92;24.70;;;15.40;99.90;;;;;;4806420;29;20057;-76
2022/09/10 06:48:20;;;;;;;39.03;24.13;;;15.50;99.90;;;;;;4790265;29;20058;-76
2022/09/10 06:50:50;;;;;;;40.60;24.85;;;15.50;99.90;;;;;;4806596;29;20054;-77
2022/09/10 06:53:16;;;;;;;43.15;24.17;;;15.50;99.90;;;;;;4806201;29;20456;-75
2022/09/10 06:55:41;;;;;;;44.97;25.95;;;15.60;99.90;;;;;;4790130;29;20130;-76
2022/09/10 06:58:08;;;;;;;45.55;25.27;;;15.50;99.90;;;;;;4790370;29;20104;-76
2022/09/10 07:00:36;;;;;;;40.67;23.60;;;15.60;99.90;;;;;;4806479;29;20050;-77
2022/09/10 07:03:02;;;;;;;41.20;25.25;;;15.60;99.90;;;;;;4789904;29;20408;-77
2022/09/10 07:05:31;;;;;;;40.60;24.58;;;15.60;99.90;;;;;;4790040;29;20055;-77
2022/09/10 07:07:56;;;;;;;41.33;24.48;;;15.70;99.90;;;;;;4789822;29;20064;-77
2022/09/10 07:10:22;;;;;;;41.92;25.67;;;15.60;99.90;;;;;;4790165;29;20059;-77
2022/09/10 07:12:47;;;;;;;38.85;24.63;;;15.70;99.90;;;;;;4789716;29;20488;-77
2022/09/10 07:15:13;;;;;;;34.70;24.98;;;15.70;99.90;;;;;;4789902;29;20086;-77
2022/09/10 07:17:39;;;;;;;42.08;24.73;;;15.80;99.90;;;;;;4790163;29;20080;-77
2022/09/10 07:20:05;;;;;;;42.33;25.98;;;15.80;99.90;;;;;;4789945;29;20082;-78
2022/09/10 07:22:31;;;;;;;38.53;24.38;;;15.80;99.90;;;;;;4789594;29;20092;-77
2022/09/10 07:24:57;;;;;;;40.72;26.15;;;15.70;99.90;;;;;;4812592;29;20054;-79
2022/09/10 07:27:22;;;;;;;36.28;22.70;;;15.70;99.90;;;;;;4793401;29;20063;-79
2022/09/10 07:29:48;;;;;;;35.60;24.15;;;15.80;99.90;;;;;;4790036;29;20050;-79
2022/09/10 07:32:14;;;;;;;36.38;24.25;;;15.80;99.90;;;;;;4793007;29;20063;-78
2022/09/10 07:34:39;;;;;;;38.70;24.88;;;15.80;99.90;;;;;;4802480;29;20065;-79
2022/09/10 07:37:06;;;;;;;37.45;24.35;;;15.90;99.90;;;;;;4811005;29;20107;-79
2022/09/10 07:39:34;;;;;;;38.72;24.10;;;15.90;99.90;;;;;;4809412;29;20060;-79
2022/09/10 07:42:00;;;;;;;37.25;23.25;;;15.90;99.90;;;;;;4817587;29;20050;-79
2022/09/10 07:44:26;;;;;;;38.58;24.08;;;15.90;99.90;;;;;;4808949;29;20093;-79
2022/09/10 07:46:51;;;;;;;35.33;24.30;;;16.00;99.90;;;;;;4828066;29;20081;-79
2022/09/10 07:49:19;;;;;;;37.28;23.52;;;16.00;99.90;;;;;;4811820;29;20492;-79
2022/09/10 07:51:45;;;;;;;35.22;23.05;;;16.00;99.90;;;;;;4811455;29;20058;-79
2022/09/10 07:54:15;;;;;;;35.58;24.05;;;16.00;99.90;;;;;;4811623;29;20065;-79
2022/09/10 07:56:41;;;;;;;37.03;23.65;;;16.10;99.90;;;;;;4811549;29;20051;-79
2022/09/10 07:59:07;;;;;;;38.83;24.23;;;16.10;99.90;;;;;;4811350;29;20054;-79
2022/09/10 08:01:33;;;;;;;36.00;23.42;;;16.20;99.90;;;;;;4811322;29;20066;-79
2022/09/10 08:03:59;;;;;;;34.55;23.45;;;16.10;99.90;;;;;;4827796;29;20038;-79
2022/09/10 08:06:25;;;;;;;35.03;22.95;;;16.10;99.90;;;;;;4827977;29;20061;-79
2022/09/10 08:08:51;;;;;;;34.80;22.98;;;16.20;99.90;;;;;;4811374;29;20050;-79
2022/09/10 08:11:18;;;;;;;36.03;23.08;;;16.20;99.90;;;;;;4809589;29;20051;-79
2022/09/10 08:13:46;;;;;;;34.28;22.38;;;16.20;99.90;;;;;;4802812;29;20212;-80
2022/09/10 08:16:23;;;;;;;32.75;22.45;;;16.30;99.90;;;;;;4796705;29;20071;-79
2022/09/10 08:18:50;;;;;;;31.88;22.35;;;16.20;99.90;;;;;;4825854;29;20047;-79
2022/09/10 08:21:17;;;;;;;32.33;22.38;;;16.30;99.90;;;;;;4825854;29;20085;-80
2022/09/10 08:23:47;;;;;;;33.63;21.83;;;16.20;99.90;;;;;;4809506;29;20084;-79
2022/09/10 08:26:13;;;;;;;32.17;22.67;;;16.30;99.90;;;;;;4810927;29;20129;-79
2022/09/10 08:28:39;;;;;;;33.92;23.65;;;16.20;99.90;;;;;;4806556;29;20203;-79
2022/09/10 08:31:06;;;;;;;32.60;22.95;;;16.20;99.90;;;;;;4810411;29;20050;-78
2022/09/10 08:33:38;;;;;;;31.13;21.60;;;16.20;99.90;;;;;;4810845;29;20038;-79
2022/09/10 08:36:05;;;;;;;36.83;23.38;;;16.30;99.90;;;;;;4809069;29;20479;-79
2022/09/10 08:38:36;;;;;;;33.55;22.60;;;16.40;99.90;;;;;;4810629;29;20046;-78
2022/09/10 08:41:25;;;;;;;32.92;22.80;;;16.40;99.90;;;;;;4808508;29;20050;-78
2022/09/10 08:43:56;;;;;;;32.38;21.80;;;16.50;99.90;;;;;;4808783;29;20050;-78
2022/09/10 08:46:28;;;;;;;34.50;22.17;;;16.50;99.90;;;;;;4826162;29;20042;-78
2022/09/10 08:49:07;;;;;;;33.50;21.97;;;16.50;99.90;;;;;;4826698;29;20059;-78
2022/09/10 08:51:57;;;;;;;32.00;21.23;;;16.50;99.90;;;;;;4810344;29;20511;-78
2022/09/10 08:54:58;;;;;;;29.65;20.85;;;16.50;99.90;;;;;;4821529;29;20070;-78
2022/09/10 08:57:33;;;;;;;32.88;20.20;;;16.50;99.90;;;;;;4806538;29;20057;-78
2022/09/10 09:00:01;;;;;;;30.65;21.65;;;16.50;99.90;;;;;;4810367;29;20518;-78
2022/09/10 09:02:55;;;;;;;33.22;20.52;;;16.50;99.90;;;;;;4788872;24;20089;-78
2022/09/10 09:05:22;;;;;;;33.92;22.08;;;16.70;99.90;;;;;;4774195;30;20051;-78
2022/09/10 09:07:49;;;;;;;33.90;22.17;;;16.70;99.90;;;;;;4773943;30;20472;-78
2022/09/10 09:10:29;;;;;;;36.35;22.50;;;16.80;99.90;;;;;;4788545;30;20047;-78
2022/09/10 09:13:19;;;;;;;32.70;21.90;;;16.70;99.90;;;;;;4772639;30;20138;-79
2022/09/10 09:15:50;;;;;;;34.17;22.40;;;16.80;99.90;;;;;;4773419;30;20055;-78
2022/09/10 09:18:37;;;;;;;29.98;20.02;;;16.70;99.90;;;;;;4773819;30;20094;-79
2022/09/10 09:21:15;;;;;;;32.67;21.25;;;16.70;99.90;;;;;;4774078;30;20063;-79
2022/09/10 09:23:50;;;;;;;32.25;21.60;;;16.70;99.90;;;;;;4774007;30;20047;-78
2022/09/10 09:26:17;;;;;;;29.75;20.15;;;16.70;99.90;;;;;;4773766;30;20090;-79
2022/09/10 09:29:26;;;;;;;33.70;20.33;;;16.70;99.90;;;;;;4774060;30;20059;-78
2022/09/10 09:31:57;;;;;;;28.77;19.27;;;16.80;99.90;;;;;;4724990;30;20061;-79
2022/09/10 09:34:39;;;;;;;27.40;19.63;;;16.70;99.90;;;;;;4773155;30;20063;-78
2022/09/10 09:37:16;;;;;;;26.02;18.85;;;16.80;99.90;;;;;;4789549;30;20058;-78
2022/09/10 09:40:04;;;;;;;30.20;18.88;;;16.80;99.90;;;;;;4773559;30;20051;-79
2022/09/10 09:42:51;;;;;;;27.88;19.52;;;16.90;99.90;;;;;;4773615;30;20093;-78
2022/09/10 09:45:43;;;;;;;28.85;18.52;;;17.00;99.90;;;;;;4773487;30;20092;-78
2022/09/10 09:48:13;;;;;;;30.00;19.50;;;17.10;99.90;;;;;;4773396;30;20059;-78
2022/09/10 09:50:41;;;;;;;32.22;18.52;;;17.20;99.90;;;;;;4790143;30;20044;-78
2022/09/10 09:53:16;;;;;;;26.95;19.25;;;17.30;99.90;;;;;;4789434;29;20066;-78
2022/09/10 09:55:46;;;;;;;27.27;19.40;;;17.30;99.90;;;;;;4789330;30;20047;-78
2022/09/10 09:58:23;;;;;;;29.58;17.92;;;17.40;99.90;;;;;;4789500;30;20085;-78
2022/09/10 10:00:53;;;;;;;28.38;18.25;;;17.40;99.90;;;;;;4773092;30;20055;-82
2022/09/10 10:03:30;;;;;;;30.63;19.63;;;17.30;99.90;;;;;;4779061;30;20107;-91
2022/09/10 10:06:07;;;;;;;24.40;17.95;;;17.30;99.90;;;;;;4775427;30;20055;-86
2022/09/10 10:08:40;;;;;;;26.45;19.15;;;17.30;99.90;;;;;;4775560;30;20055;-87
2022/09/10 10:11:06;;;;;;;31.90;20.17;;;17.40;99.90;;;;;;4798835;29;20096;-91
2022/09/10 10:13:39;;;;;;;27.77;19.25;;;17.40;99.90;;;;;;4774896;30;20073;-87
2022/09/10 10:16:34;;;;;;;26.23;18.35;;;17.50;99.90;;;;;;4791425;29;20072;-92
2022/09/10 10:19:00;;;;;;;25.90;18.23;;;17.60;99.90;;;;;;4779037;30;20128;-88
2022/09/10 10:21:39;;;;;;;26.40;17.60;;;17.60;99.90;;;;;;4778623;30;20043;-86
2022/09/10 10:24:30;;;;;;;25.25;18.17;;;17.70;99.90;;;;;;4785048;30;20051;-87
2022/09/10 10:26:57;;;;;;;27.45;17.50;;;17.80;99.90;;;;;;4775522;30;20579;-89
2022/09/10 10:29:23;;;;;;;27.60;18.15;;;17.90;99.90;;;;;;4782593;30;20128;-88
2022/09/10 10:31:49;;;;;;;24.50;18.27;;;18.00;99.90;;;;;;4791209;29;20043;-88
2022/09/10 10:34:18;;;;;;;22.65;17.35;;;18.00;99.90;;;;;;4791074;30;20040;-87
2022/09/10 10:37:11;;;;;;;23.70;17.58;;;17.70;99.90;;;;;;4774750;30;20055;-88
2022/09/10 10:40:16;;;;;;;25.52;17.63;;;17.80;99.90;;;;;;4775214;30;20504;-85
2022/09/10 10:42:58;;;;;;;26.45;17.05;;;17.80;99.90;;;;;;4774464;30;20066;-89
2022/09/10 10:46:00;;;;;;;25.33;17.60;;;17.90;99.90;;;;;;4778652;30;20067;-90
2022/09/10 10:48:44;;;;;;;25.80;16.98;;;18.00;99.90;;;;;;4707101;30;20052;-91
2022/09/10 10:51:25;;;;;;;23.33;16.60;;;18.10;99.90;;;;;;4792260;29;20078;-85
2022/09/10 10:54:09;;;;;;;28.40;17.40;;;18.00;99.90;;;;;;4790792;30;20058;-94
2022/09/10 10:56:58;;;;;;;21.13;15.90;;;18.10;99.90;;;;;;4778405;30;20059;-96
2022/09/10 10:59:45;;;;;;;27.73;17.10;;;18.10;99.90;;;;;;4777359;30;20124;-93
2022/09/10 11:02:32;;;;;;;21.15;15.65;;;18.30;99.90;;;;;;4793682;29;20070;-87
2022/09/10 11:05:08;;;;;;;24.13;17.08;;;18.50;99.90;;;;;;4779565;30;20059;-88
2022/09/10 11:07:43;;;;;;;26.65;16.92;;;18.60;99.90;;;;;;4774110;30;20055;-86
2022/09/10 11:10:21;;;;;;;22.70;16.67;;;18.80;99.90;;;;;;4774302;30;20043;-91
2022/09/10 11:13:30;;;;;;;22.77;16.17;;;18.50;99.90;;;;;;4790657;30;20511;-91
2022/09/10 11:16:21;;;;;;;26.75;16.50;;;18.50;99.90;;;;;;4774509;30;20431;-85
2022/09/10 11:18:56;;;;;;;23.20;17.13;;;18.60;99.90;;;;;;4774566;30;20055;-85
2022/09/10 11:21:40;;;;;;;24.42;15.85;;;18.70;99.90;;;;;;4792149;30;20088;-86
2022/09/10 11:24:22;;;;;;;21.25;15.00;;;18.90;99.90;;;;;;4791109;30;20099;-79
2022/09/10 11:27:06;;;;;;;26.85;16.15;;;19.10;99.90;;;;;;4788239;30;20055;-81
2022/09/10 11:29:51;;;;;;;20.55;15.18;;;19.30;99.90;;;;;;4788309;30;20043;-79
2022/09/10 11:32:49;;;;;;;20.45;15.80;;;19.50;99.90;;;;;;4788364;30;20056;-80
2022/09/10 11:35:18;;;;;;;22.55;16.45;;;19.20;99.90;;;;;;4788477;30;20105;-80
2022/09/10 11:38:19;;;;;;;21.85;15.55;;;19.20;99.90;;;;;;4772875;30;20062;-81
2022/09/10 11:41:02;;;;;;;22.95;15.50;;;19.30;99.90;;;;;;4787977;30;20131;-80
2022/09/10 11:43:57;;;;;;;22.90;15.98;;;19.30;99.90;;;;;;4787849;30;20054;-80
2022/09/10 11:46:30;;;;;;;21.83;16.10;;;19.10;99.90;;;;;;4771633;30;20461;-78
2022/09/10 11:49:14;;;;;;;21.90;15.13;;;19.20;99.90;;;;;;4787907;30;20047;-79
2022/09/10 11:51:40;;;;;;;22.50;15.68;;;19.10;99.90;;;;;;4771627;30;20131;-79
2022/09/10 11:54:33;;;;;;;19.50;14.65;;;19.20;99.90;;;;;;4771769;30;20046;-79
2022/09/10 11:57:05;;;;;;;20.50;14.88;;;19.40;99.90;;;;;;4772129;30;20062;-79
2022/09/10 11:59:41;;;;;;;23.25;15.73;;;19.30;99.90;;;;;;4771878;30;20177;-78
2022/09/10 12:02:25;;;;;;;22.38;16.58;;;19.50;99.90;;;;;;4771744;30;20134;-78
2022/09/10 12:05:13;;;;;;;28.10;17.33;;;19.70;99.90;;;;;;4771837;30;20119;-79
2022/09/10 12:07:44;;;;;;;20.83;16.05;;;19.70;99.90;;;;;;4771907;30;20051;-79
2022/09/10 12:10:34;;;;;;;19.13;14.38;;;20.00;99.90;;;;;;4771839;30;20063;-79
2022/09/10 12:13:00;;;;;;;20.30;14.20;;;19.70;99.90;;;;;;4772174;30;20112;-79
2022/09/10 12:15:33;;;;;;;18.52;13.82;;;19.90;99.90;;;;;;4771737;30;20059;-80
2022/09/10 12:18:05;;;;;;;17.17;13.82;;;20.00;99.90;;;;;;4789908;29;20047;-78
2022/09/10 12:20:38;;;;;;;17.85;11.30;;;20.20;99.90;;;;;;4791062;29;20055;-79
2022/09/10 12:23:04;;;;;;;14.82;11.55;;;20.30;99.90;;;;;;4774827;30;20489;-79
2022/09/10 12:25:34;;;;;;;17.40;12.15;;;20.30;99.90;;;;;;4775131;30;20070;-78
2022/09/10 12:28:21;;;;;;;17.05;12.48;;;20.20;99.90;;;;;;4774548;30;20054;-79
2022/09/10 12:31:25;;;;;;;;;;;;;;;;;;;;;
2022/09/10 12:34:12;;;;;;;19.60;13.15;;;20.20;99.90;;;;;;4767825;30;20063;-79
2022/09/10 12:36:40;;;;;;;19.17;12.85;;;20.20;99.90;;;;;;4790635;30;20472;-79
2022/09/10 12:39:22;;;;;;;16.70;13.20;;;20.10;99.90;;;;;;4774903;30;20058;-79
2022/09/10 12:41:51;;;;;;;18.83;14.00;;;19.90;99.90;;;;;;4774709;30;20058;-79
2022/09/10 12:44:35;;;;;;;15.50;12.85;;;19.70;99.90;;;;;;4790391;30;20059;-78
2022/09/10 12:47:16;;;;;;;20.77;13.35;;;19.90;99.90;;;;;;4774529;30;20493;-79
2022/09/10 12:49:53;;;;;;;20.42;14.13;;;19.90;99.90;;;;;;4774526;30;20089;-78
2022/09/10 12:52:34;;;;;;;18.30;13.38;;;19.80;99.90;;;;;;4774308;30;20062;-78